sensor_id;sensor_type;location;lat;lon;timestamp;pressure;altitude;pressure_sealevel;temperature
72405;BMP280;60395;52.020;113.548;2022-12-07T00:01:06;92415.66;;;-8.99
72405;BMP280;60395;52.020;113.548;2022-12-07T00:04:14;92412.47;;;-8.99
72405;BMP280;60395;52.020;113.548;2022-12-07T00:07:18;92422.75;;;-8.97
72405;BMP280;60395;52.020;113.548;2022-12-07T00:10:28;92410.59;;;-8.99
72405;BMP280;60395;52.020;113.548;2022-12-07T00:13:32;92426.63;;;-8.96
72405;BMP280;60395;52.020;113.548;2022-12-07T00:16:36;92424.28;;;-8.92
72405;BMP280;60395;52.020;113.548;2022-12-07T00:19:39;92430.28;;;-8.87
72405;BMP280;60395;52.020;113.548;2022-12-07T00:22:42;92428.31;;;-8.77
72405;BMP280;60395;52.020;113.548;2022-12-07T00:25:45;92435.59;;;-8.72
72405;BMP280;60395;52.020;113.548;2022-12-07T00:28:52;92438.94;;;-8.69
72405;BMP280;60395;52.020;113.548;2022-12-07T00:31:56;92444.25;;;-8.65
72405;BMP280;60395;52.020;113.548;2022-12-07T00:34:59;92443.81;;;-8.62
72405;BMP280;60395;52.020;113.548;2022-12-07T00:38:02;92444.03;;;-8.58
72405;BMP280;60395;52.020;113.548;2022-12-07T00:41:09;92439.28;;;-8.51
72405;BMP280;60395;52.020;113.548;2022-12-07T00:44:13;92444.13;;;-8.44
72405;BMP280;60395;52.020;113.548;2022-12-07T00:47:16;92450.56;;;-8.31
72405;BMP280;60395;52.020;113.548;2022-12-07T00:50:19;92452.56;;;-8.18
72405;BMP280;60395;52.020;113.548;2022-12-07T00:53:23;92463.69;;;-8.00
72405;BMP280;60395;52.020;113.548;2022-12-07T00:56:27;92451.59;;;-7.88
72405;BMP280;60395;52.020;113.548;2022-12-07T00:59:31;92465.19;;;-7.71
72405;BMP280;60395;52.020;113.548;2022-12-07T01:02:34;92472.81;;;-7.60
72405;BMP280;60395;52.020;113.548;2022-12-07T01:05:37;92476.66;;;-7.47
72405;BMP280;60395;52.020;113.548;2022-12-07T01:08:40;92479.50;;;-7.29
72405;BMP280;60395;52.020;113.548;2022-12-07T01:11:43;92487.97;;;-7.13
72405;BMP280;60395;52.020;113.548;2022-12-07T01:14:46;92492.44;;;-7.00
72405;BMP280;60395;52.020;113.548;2022-12-07T01:17:50;92484.81;;;-6.86
72405;BMP280;60395;52.020;113.548;2022-12-07T01:21:06;92489.88;;;-6.75
72405;BMP280;60395;52.020;113.548;2022-12-07T01:24:10;92482.59;;;-6.66
72405;BMP280;60395;52.020;113.548;2022-12-07T01:27:14;92486.66;;;-6.61
72405;BMP280;60395;52.020;113.548;2022-12-07T01:30:17;92497.19;;;-6.55
72405;BMP280;60395;52.020;113.548;2022-12-07T01:33:20;92490.78;;;-6.43
72405;BMP280;60395;52.020;113.548;2022-12-07T01:36:28;92500.44;;;-6.27
72405;BMP280;60395;52.020;113.548;2022-12-07T01:39:32;92497.22;;;-6.14
72405;BMP280;60395;52.020;113.548;2022-12-07T01:42:35;92503.66;;;-6.00
72405;BMP280;60395;52.020;113.548;2022-12-07T01:45:40;92509.88;;;-5.89
72405;BMP280;60395;52.020;113.548;2022-12-07T01:48:43;92503.41;;;-5.76
72405;BMP280;60395;52.020;113.548;2022-12-07T01:51:47;92501.59;;;-5.60
72405;BMP280;60395;52.020;113.548;2022-12-07T01:54:57;92511.44;;;-5.41
72405;BMP280;60395;52.020;113.548;2022-12-07T01:58:00;92499.88;;;-5.26
72405;BMP280;60395;52.020;113.548;2022-12-07T02:01:04;92500.00;;;-5.08
72405;BMP280;60395;52.020;113.548;2022-12-07T02:04:07;92500.59;;;-4.94
72405;BMP280;60395;52.020;113.548;2022-12-07T02:07:11;92503.78;;;-4.80
72405;BMP280;60395;52.020;113.548;2022-12-07T02:10:27;92504.94;;;-4.67
72405;BMP280;60395;52.020;113.548;2022-12-07T02:13:34;92504.75;;;-4.56
72405;BMP280;60395;52.020;113.548;2022-12-07T02:16:42;92499.38;;;-4.46
72405;BMP280;60395;52.020;113.548;2022-12-07T02:20:39;92504.84;;;-4.38
72405;BMP280;60395;52.020;113.548;2022-12-07T02:24:02;92502.38;;;-4.36
72405;BMP280;60395;52.020;113.548;2022-12-07T02:30:39;92500.03;;;-4.46
72405;BMP280;60395;52.020;113.548;2022-12-07T02:33:50;92501.78;;;-4.50
72405;BMP280;60395;52.020;113.548;2022-12-07T02:37:00;92505.69;;;-4.49
72405;BMP280;60395;52.020;113.548;2022-12-07T02:40:14;92488.97;;;-4.50
72405;BMP280;60395;52.020;113.548;2022-12-07T02:43:24;92485.75;;;-4.51
72405;BMP280;60395;52.020;113.548;2022-12-07T02:46:38;92483.13;;;-4.53
72405;BMP280;60395;52.020;113.548;2022-12-07T02:49:43;92472.94;;;-4.51
72405;BMP280;60395;52.020;113.548;2022-12-07T02:52:47;92465.63;;;-4.40
72405;BMP280;60395;52.020;113.548;2022-12-07T02:55:50;92458.22;;;-4.34
72405;BMP280;60395;52.020;113.548;2022-12-07T03:13:07;92464.91;;;-4.43
72405;BMP280;60395;52.020;113.548;2022-12-07T03:16:43;92461.03;;;-4.44
72405;BMP280;60395;52.020;113.548;2022-12-07T03:19:50;92461.69;;;-4.44
72405;BMP280;60395;52.020;113.548;2022-12-07T03:22:56;92449.09;;;-4.37
72405;BMP280;60395;52.020;113.548;2022-12-07T03:26:00;92454.31;;;-4.35
72405;BMP280;60395;52.020;113.548;2022-12-07T03:29:14;92436.38;;;-4.35
72405;BMP280;60395;52.020;113.548;2022-12-07T03:32:27;92447.38;;;-4.33
72405;BMP280;60395;52.020;113.548;2022-12-07T03:38:55;92436.91;;;-4.21
72405;BMP280;60395;52.020;113.548;2022-12-07T03:42:02;92446.28;;;-4.28
72405;BMP280;60395;52.020;113.548;2022-12-07T03:45:07;92440.72;;;-4.22
72405;BMP280;60395;52.020;113.548;2022-12-07T03:48:20;92428.38;;;-4.10
72405;BMP280;60395;52.020;113.548;2022-12-07T03:51:45;92436.78;;;-4.08
72405;BMP280;60395;52.020;113.548;2022-12-07T03:55:18;92446.59;;;-4.02
72405;BMP280;60395;52.020;113.548;2022-12-07T03:58:24;92439.00;;;-4.00
72405;BMP280;60395;52.020;113.548;2022-12-07T04:01:27;92445.84;;;-3.89
72405;BMP280;60395;52.020;113.548;2022-12-07T04:04:31;92450.84;;;-3.93
72405;BMP280;60395;52.020;113.548;2022-12-07T04:07:35;92448.50;;;-3.87
72405;BMP280;60395;52.020;113.548;2022-12-07T04:10:38;92450.22;;;-3.74
72405;BMP280;60395;52.020;113.548;2022-12-07T04:13:41;92454.81;;;-3.72
72405;BMP280;60395;52.020;113.548;2022-12-07T04:17:04;92456.34;;;-3.65
72405;BMP280;60395;52.020;113.548;2022-12-07T04:20:07;92460.50;;;-3.56
72405;BMP280;60395;52.020;113.548;2022-12-07T04:23:11;92460.28;;;-3.44
72405;BMP280;60395;52.020;113.548;2022-12-07T04:26:14;92469.25;;;-3.45
72405;BMP280;60395;52.020;113.548;2022-12-07T04:29:18;92462.63;;;-3.50
72405;BMP280;60395;52.020;113.548;2022-12-07T04:32:22;92469.22;;;-3.63
72405;BMP280;60395;52.020;113.548;2022-12-07T04:35:25;92461.41;;;-3.67
72405;BMP280;60395;52.020;113.548;2022-12-07T04:38:28;92466.00;;;-3.63
72405;BMP280;60395;52.020;113.548;2022-12-07T04:41:31;92460.06;;;-3.68
72405;BMP280;60395;52.020;113.548;2022-12-07T04:44:34;92451.06;;;-3.69
72405;BMP280;60395;52.020;113.548;2022-12-07T04:47:38;92451.44;;;-3.59
72405;BMP280;60395;52.020;113.548;2022-12-07T04:50:41;92453.59;;;-3.51
72405;BMP280;60395;52.020;113.548;2022-12-07T04:53:48;92452.06;;;-3.41
72405;BMP280;60395;52.020;113.548;2022-12-07T04:56:51;92464.75;;;-3.27
72405;BMP280;60395;52.020;113.548;2022-12-07T04:59:54;92473.16;;;-3.07
72405;BMP280;60395;52.020;113.548;2022-12-07T05:02:57;92475.47;;;-2.95
72405;BMP280;60395;52.020;113.548;2022-12-07T05:06:00;92472.69;;;-3.01
72405;BMP280;60395;52.020;113.548;2022-12-07T05:09:04;92480.06;;;-3.11
72405;BMP280;60395;52.020;113.548;2022-12-07T05:12:07;92469.34;;;-3.23
72405;BMP280;60395;52.020;113.548;2022-12-07T05:15:10;92468.63;;;-3.26
72405;BMP280;60395;52.020;113.548;2022-12-07T05:18:14;92465.84;;;-3.32
72405;BMP280;60395;52.020;113.548;2022-12-07T05:21:19;92463.22;;;-3.34
72405;BMP280;60395;52.020;113.548;2022-12-07T05:24:22;92461.97;;;-3.33
72405;BMP280;60395;52.020;113.548;2022-12-07T05:27:25;92462.09;;;-3.29
72405;BMP280;60395;52.020;113.548;2022-12-07T05:30:29;92468.69;;;-3.24
72405;BMP280;60395;52.020;113.548;2022-12-07T05:33:32;92470.25;;;-3.35
72405;BMP280;60395;52.020;113.548;2022-12-07T05:36:35;92470.69;;;-3.40
72405;BMP280;60395;52.020;113.548;2022-12-07T05:39:39;92466.75;;;-3.43
72405;BMP280;60395;52.020;113.548;2022-12-07T05:42:43;92475.03;;;-3.45
72405;BMP280;60395;52.020;113.548;2022-12-07T05:45:46;92472.31;;;-3.49
72405;BMP280;60395;52.020;113.548;2022-12-07T05:48:49;92470.66;;;-3.42
72405;BMP280;60395;52.020;113.548;2022-12-07T05:51:52;92476.56;;;-3.38
72405;BMP280;60395;52.020;113.548;2022-12-07T05:54:56;92477.28;;;-3.35
72405;BMP280;60395;52.020;113.548;2022-12-07T05:57:59;92473.41;;;-3.36
72405;BMP280;60395;52.020;113.548;2022-12-07T06:01:20;92473.56;;;-3.32
72405;BMP280;60395;52.020;113.548;2022-12-07T06:04:25;92474.88;;;-3.31
72405;BMP280;60395;52.020;113.548;2022-12-07T06:07:29;92480.66;;;-3.31
72405;BMP280;60395;52.020;113.548;2022-12-07T06:10:32;92485.16;;;-3.31
72405;BMP280;60395;52.020;113.548;2022-12-07T06:13:35;92481.38;;;-3.28
72405;BMP280;60395;52.020;113.548;2022-12-07T06:16:44;92483.38;;;-3.27
72405;BMP280;60395;52.020;113.548;2022-12-07T06:19:48;92478.75;;;-3.30
72405;BMP280;60395;52.020;113.548;2022-12-07T06:22:51;92483.63;;;-3.38
72405;BMP280;60395;52.020;113.548;2022-12-07T06:25:54;92495.66;;;-3.43
72405;BMP280;60395;52.020;113.548;2022-12-07T06:28:57;92491.44;;;-3.52
72405;BMP280;60395;52.020;113.548;2022-12-07T06:32:00;92488.00;;;-3.58
72405;BMP280;60395;52.020;113.548;2022-12-07T06:35:04;92495.56;;;-3.62
72405;BMP280;60395;52.020;113.548;2022-12-07T06:38:07;92486.53;;;-3.63
72405;BMP280;60395;52.020;113.548;2022-12-07T06:41:11;92491.53;;;-3.68
72405;BMP280;60395;52.020;113.548;2022-12-07T06:44:14;92487.78;;;-3.64
72405;BMP280;60395;52.020;113.548;2022-12-07T06:47:17;92493.94;;;-3.72
72405;BMP280;60395;52.020;113.548;2022-12-07T06:50:40;92500.75;;;-3.78
72405;BMP280;60395;52.020;113.548;2022-12-07T06:53:43;92501.75;;;-3.85
72405;BMP280;60395;52.020;113.548;2022-12-07T06:56:47;92507.97;;;-3.90
72405;BMP280;60395;52.020;113.548;2022-12-07T06:59:50;92511.25;;;-4.06
72405;BMP280;60395;52.020;113.548;2022-12-07T07:02:53;92512.06;;;-4.17
72405;BMP280;60395;52.020;113.548;2022-12-07T07:05:56;92519.63;;;-4.21
72405;BMP280;60395;52.020;113.548;2022-12-07T07:08:59;92525.31;;;-4.22
72405;BMP280;60395;52.020;113.548;2022-12-07T07:12:03;92527.50;;;-4.32
72405;BMP280;60395;52.020;113.548;2022-12-07T07:15:07;92520.63;;;-4.28
72405;BMP280;60395;52.020;113.548;2022-12-07T07:18:10;92530.56;;;-4.36
72405;BMP280;60395;52.020;113.548;2022-12-07T07:21:13;92529.13;;;-4.39
72405;BMP280;60395;52.020;113.548;2022-12-07T07:24:16;92533.03;;;-4.38
72405;BMP280;60395;52.020;113.548;2022-12-07T07:27:20;92539.16;;;-4.45
72405;BMP280;60395;52.020;113.548;2022-12-07T07:30:23;92542.53;;;-4.56
72405;BMP280;60395;52.020;113.548;2022-12-07T07:33:27;92536.59;;;-4.61
72405;BMP280;60395;52.020;113.548;2022-12-07T07:36:30;92533.94;;;-4.63
72405;BMP280;60395;52.020;113.548;2022-12-07T07:39:33;92540.88;;;-4.65
72405;BMP280;60395;52.020;113.548;2022-12-07T07:42:36;92547.34;;;-4.64
72405;BMP280;60395;52.020;113.548;2022-12-07T07:45:39;92550.47;;;-4.66
72405;BMP280;60395;52.020;113.548;2022-12-07T07:48:43;92554.28;;;-4.67
72405;BMP280;60395;52.020;113.548;2022-12-07T07:51:46;92551.03;;;-4.67
72405;BMP280;60395;52.020;113.548;2022-12-07T07:54:49;92561.38;;;-4.65
72405;BMP280;60395;52.020;113.548;2022-12-07T07:57:52;92556.81;;;-4.67
72405;BMP280;60395;52.020;113.548;2022-12-07T08:00:57;92562.53;;;-4.68
72405;BMP280;60395;52.020;113.548;2022-12-07T08:04:00;92556.66;;;-4.71
72405;BMP280;60395;52.020;113.548;2022-12-07T08:07:03;92563.03;;;-4.72
72405;BMP280;60395;52.020;113.548;2022-12-07T08:10:07;92569.38;;;-4.73
72405;BMP280;60395;52.020;113.548;2022-12-07T08:13:13;92572.53;;;-4.74
72405;BMP280;60395;52.020;113.548;2022-12-07T08:16:18;92572.53;;;-4.74
72405;BMP280;60395;52.020;113.548;2022-12-07T08:19:21;92583.34;;;-4.76
72405;BMP280;60395;52.020;113.548;2022-12-07T08:22:24;92576.13;;;-4.79
72405;BMP280;60395;52.020;113.548;2022-12-07T08:25:27;92571.50;;;-4.83
72405;BMP280;60395;52.020;113.548;2022-12-07T08:28:31;92577.81;;;-4.86
72405;BMP280;60395;52.020;113.548;2022-12-07T08:31:35;92578.19;;;-4.92
72405;BMP280;60395;52.020;113.548;2022-12-07T08:34:38;92580.00;;;-4.94
72405;BMP280;60395;52.020;113.548;2022-12-07T08:37:41;92586.28;;;-4.97
72405;BMP280;60395;52.020;113.548;2022-12-07T08:40:52;92593.19;;;-5.00
72405;BMP280;60395;52.020;113.548;2022-12-07T08:43:56;92583.63;;;-4.99
72405;BMP280;60395;52.020;113.548;2022-12-07T08:47:02;92590.63;;;-5.00
72405;BMP280;60395;52.020;113.548;2022-12-07T08:50:09;92588.72;;;-4.99
72405;BMP280;60395;52.020;113.548;2022-12-07T08:53:13;92594.44;;;-5.01
72405;BMP280;60395;52.020;113.548;2022-12-07T08:56:17;92595.03;;;-5.02
72405;BMP280;60395;52.020;113.548;2022-12-07T08:59:20;92585.25;;;-5.06
72405;BMP280;60395;52.020;113.548;2022-12-07T09:02:24;92579.00;;;-5.03
72405;BMP280;60395;52.020;113.548;2022-12-07T09:05:27;92578.50;;;-4.99
72405;BMP280;60395;52.020;113.548;2022-12-07T09:08:38;92589.41;;;-4.99
72405;BMP280;60395;52.020;113.548;2022-12-07T09:11:42;92577.00;;;-5.04
72405;BMP280;60395;52.020;113.548;2022-12-07T09:14:47;92585.25;;;-5.06
72405;BMP280;60395;52.020;113.548;2022-12-07T09:17:51;92581.94;;;-5.08
72405;BMP280;60395;52.020;113.548;2022-12-07T09:20:55;92599.50;;;-5.16
72405;BMP280;60395;52.020;113.548;2022-12-07T09:23:59;92592.69;;;-5.26
72405;BMP280;60395;52.020;113.548;2022-12-07T09:27:02;92596.78;;;-5.34
72405;BMP280;60395;52.020;113.548;2022-12-07T09:30:06;92598.50;;;-5.39
72405;BMP280;60395;52.020;113.548;2022-12-07T09:33:09;92599.84;;;-5.51
72405;BMP280;60395;52.020;113.548;2022-12-07T09:36:12;92600.78;;;-5.59
72405;BMP280;60395;52.020;113.548;2022-12-07T09:39:15;92604.47;;;-5.62
72405;BMP280;60395;52.020;113.548;2022-12-07T09:42:38;92605.06;;;-5.63
72405;BMP280;60395;52.020;113.548;2022-12-07T09:45:56;92611.22;;;-5.68
72405;BMP280;60395;52.020;113.548;2022-12-07T09:49:00;92604.50;;;-5.75
72405;BMP280;60395;52.020;113.548;2022-12-07T09:55:12;92604.22;;;-5.81
72405;BMP280;60395;52.020;113.548;2022-12-07T09:58:24;92609.22;;;-5.83
72405;BMP280;60395;52.020;113.548;2022-12-07T10:01:31;92604.69;;;-5.85
72405;BMP280;60395;52.020;113.548;2022-12-07T10:04:34;92608.19;;;-5.92
72405;BMP280;60395;52.020;113.548;2022-12-07T10:07:40;92613.28;;;-5.92
72405;BMP280;60395;52.020;113.548;2022-12-07T10:10:45;92622.66;;;-5.97
72405;BMP280;60395;52.020;113.548;2022-12-07T10:13:52;92618.84;;;-5.96
72405;BMP280;60395;52.020;113.548;2022-12-07T10:16:58;92616.69;;;-6.01
72405;BMP280;60395;52.020;113.548;2022-12-07T10:23:17;92637.69;;;-6.03
72405;BMP280;60395;52.020;113.548;2022-12-07T10:29:34;92642.75;;;-5.91
72405;BMP280;60395;52.020;113.548;2022-12-07T10:32:39;92644.16;;;-5.88
72405;BMP280;60395;52.020;113.548;2022-12-07T10:35:45;92645.13;;;-5.81
72405;BMP280;60395;52.020;113.548;2022-12-07T10:38:58;92649.41;;;-5.72
72405;BMP280;60395;52.020;113.548;2022-12-07T10:42:03;92641.72;;;-5.72
72405;BMP280;60395;52.020;113.548;2022-12-07T10:45:09;92644.94;;;-5.72
72405;BMP280;60395;52.020;113.548;2022-12-07T10:52:07;92648.44;;;-5.79
72405;BMP280;60395;52.020;113.548;2022-12-07T10:55:37;92652.13;;;-5.82
72405;BMP280;60395;52.020;113.548;2022-12-07T11:02:21;92658.91;;;-6.00
72405;BMP280;60395;52.020;113.548;2022-12-07T11:08:58;92661.53;;;-6.12
72405;BMP280;60395;52.020;113.548;2022-12-07T11:12:12;92669.00;;;-6.16
72405;BMP280;60395;52.020;113.548;2022-12-07T11:18:59;92677.97;;;-6.28
72405;BMP280;60395;52.020;113.548;2022-12-07T11:22:11;92679.06;;;-6.31
72405;BMP280;60395;52.020;113.548;2022-12-07T11:25:37;92670.09;;;-6.32
72405;BMP280;60395;52.020;113.548;2022-12-07T11:29:17;92674.03;;;-6.43
72405;BMP280;60395;52.020;113.548;2022-12-07T11:33:03;92683.25;;;-6.50
72405;BMP280;60395;52.020;113.548;2022-12-07T11:36:43;92681.63;;;-6.57
72405;BMP280;60395;52.020;113.548;2022-12-07T11:39:52;92679.53;;;-6.60
72405;BMP280;60395;52.020;113.548;2022-12-07T11:43:26;92682.00;;;-6.62
72405;BMP280;60395;52.020;113.548;2022-12-07T11:46:45;92692.00;;;-6.66
72405;BMP280;60395;52.020;113.548;2022-12-07T11:53:26;92696.69;;;-6.75
72405;BMP280;60395;52.020;113.548;2022-12-07T11:56:35;92694.56;;;-6.78
72405;BMP280;60395;52.020;113.548;2022-12-07T11:59:47;92692.34;;;-6.84
72405;BMP280;60395;52.020;113.548;2022-12-07T12:03:03;92693.69;;;-6.83
72405;BMP280;60395;52.020;113.548;2022-12-07T12:06:08;92708.69;;;-6.89
72405;BMP280;60395;52.020;113.548;2022-12-07T12:09:16;92711.91;;;-6.88
72405;BMP280;60395;52.020;113.548;2022-12-07T12:12:45;92701.69;;;-6.88
72405;BMP280;60395;52.020;113.548;2022-12-07T12:20:02;92699.91;;;-6.86
72405;BMP280;60395;52.020;113.548;2022-12-07T12:23:24;92697.44;;;-6.84
72405;BMP280;60395;52.020;113.548;2022-12-07T12:26:31;92690.59;;;-6.81
72405;BMP280;60395;52.020;113.548;2022-12-07T12:29:39;92696.69;;;-6.86
72405;BMP280;60395;52.020;113.548;2022-12-07T12:32:44;92695.16;;;-6.91
72405;BMP280;60395;52.020;113.548;2022-12-07T12:39:20;92691.06;;;-6.96
72405;BMP280;60395;52.020;113.548;2022-12-07T12:42:44;92682.31;;;-7.05
72405;BMP280;60395;52.020;113.548;2022-12-07T12:45:48;92688.75;;;-7.04
72405;BMP280;60395;52.020;113.548;2022-12-07T12:48:52;92694.28;;;-7.07
72405;BMP280;60395;52.020;113.548;2022-12-07T12:51:56;92698.84;;;-7.06
72405;BMP280;60395;52.020;113.548;2022-12-07T12:58:33;92710.31;;;-7.19
72405;BMP280;60395;52.020;113.548;2022-12-07T13:01:40;92712.50;;;-7.25
72405;BMP280;60395;52.020;113.548;2022-12-07T13:04:52;92716.16;;;-7.28
72405;BMP280;60395;52.020;113.548;2022-12-07T13:07:57;92705.19;;;-7.30
72405;BMP280;60395;52.020;113.548;2022-12-07T13:11:20;92721.59;;;-7.33
72405;BMP280;60395;52.020;113.548;2022-12-07T13:17:57;92712.50;;;-7.36
72405;BMP280;60395;52.020;113.548;2022-12-07T13:24:12;92736.88;;;-7.33
72405;BMP280;60395;52.020;113.548;2022-12-07T13:27:17;92739.56;;;-7.31
72405;BMP280;60395;52.020;113.548;2022-12-07T13:30:21;92748.44;;;-7.32
72405;BMP280;60395;52.020;113.548;2022-12-07T13:33:27;92751.66;;;-7.32
72405;BMP280;60395;52.020;113.548;2022-12-07T13:36:36;92759.31;;;-7.32
72405;BMP280;60395;52.020;113.548;2022-12-07T13:39:51;92767.09;;;-7.30
72405;BMP280;60395;52.020;113.548;2022-12-07T13:43:00;92764.09;;;-7.26
72405;BMP280;60395;52.020;113.548;2022-12-07T13:46:07;92768.63;;;-7.25
72405;BMP280;60395;52.020;113.548;2022-12-07T13:49:24;92760.97;;;-7.25
72405;BMP280;60395;52.020;113.548;2022-12-07T13:52:31;92763.19;;;-7.19
72405;BMP280;60395;52.020;113.548;2022-12-07T13:55:34;92766.44;;;-7.19
72405;BMP280;60395;52.020;113.548;2022-12-07T13:58:37;92765.22;;;-7.18
72405;BMP280;60395;52.020;113.548;2022-12-07T14:01:41;92771.09;;;-7.15
72405;BMP280;60395;52.020;113.548;2022-12-07T14:04:46;92768.53;;;-7.15
72405;BMP280;60395;52.020;113.548;2022-12-07T14:08:03;92771.63;;;-7.17
72405;BMP280;60395;52.020;113.548;2022-12-07T14:11:12;92766.53;;;-7.17
72405;BMP280;60395;52.020;113.548;2022-12-07T14:14:36;92774.97;;;-7.26
72405;BMP280;60395;52.020;113.548;2022-12-07T14:17:53;92781.28;;;-7.27
72405;BMP280;60395;52.020;113.548;2022-12-07T14:21:18;92782.25;;;-7.32
72405;BMP280;60395;52.020;113.548;2022-12-07T14:24:21;92795.81;;;-7.29
72405;BMP280;60395;52.020;113.548;2022-12-07T14:27:30;92793.28;;;-7.29
72405;BMP280;60395;52.020;113.548;2022-12-07T14:30:36;92785.47;;;-7.31
72405;BMP280;60395;52.020;113.548;2022-12-07T14:33:40;92797.47;;;-7.34
72405;BMP280;60395;52.020;113.548;2022-12-07T14:36:43;92797.47;;;-7.34
72405;BMP280;60395;52.020;113.548;2022-12-07T14:39:47;92805.78;;;-7.33
72405;BMP280;60395;52.020;113.548;2022-12-07T14:43:02;92802.81;;;-7.30
72405;BMP280;60395;52.020;113.548;2022-12-07T14:46:05;92809.91;;;-7.28
72405;BMP280;60395;52.020;113.548;2022-12-07T14:49:09;92807.00;;;-7.23
72405;BMP280;60395;52.020;113.548;2022-12-07T14:52:32;92809.66;;;-7.21
72405;BMP280;60395;52.020;113.548;2022-12-07T14:55:55;92808.44;;;-7.20
72405;BMP280;60395;52.020;113.548;2022-12-07T14:58:59;92811.91;;;-7.15
72405;BMP280;60395;52.020;113.548;2022-12-07T15:02:02;92814.66;;;-7.11
72405;BMP280;60395;52.020;113.548;2022-12-07T15:05:06;92807.94;;;-7.06
72405;BMP280;60395;52.020;113.548;2022-12-07T15:08:16;92808.03;;;-7.04
72405;BMP280;60395;52.020;113.548;2022-12-07T15:11:20;92797.38;;;-7.01
72405;BMP280;60395;52.020;113.548;2022-12-07T15:14:24;92801.25;;;-7.00
72405;BMP280;60395;52.020;113.548;2022-12-07T15:17:27;92793.72;;;-6.98
72405;BMP280;60395;52.020;113.548;2022-12-07T15:20:33;92792.38;;;-6.99
72405;BMP280;60395;52.020;113.548;2022-12-07T15:23:36;92794.38;;;-6.97
72405;BMP280;60395;52.020;113.548;2022-12-07T15:26:41;92779.72;;;-6.97
72405;BMP280;60395;52.020;113.548;2022-12-07T15:29:44;92782.50;;;-6.93
72405;BMP280;60395;52.020;113.548;2022-12-07T15:32:53;92782.38;;;-6.95
72405;BMP280;60395;52.020;113.548;2022-12-07T15:35:59;92781.50;;;-6.99
72405;BMP280;60395;52.020;113.548;2022-12-07T15:39:02;92776.31;;;-7.01
72405;BMP280;60395;52.020;113.548;2022-12-07T15:42:15;92771.28;;;-6.99
72405;BMP280;60395;52.020;113.548;2022-12-07T15:45:18;92775.41;;;-7.06
72405;BMP280;60395;52.020;113.548;2022-12-07T15:48:22;92771.19;;;-7.13
72405;BMP280;60395;52.020;113.548;2022-12-07T15:51:30;92781.28;;;-7.15
72405;BMP280;60395;52.020;113.548;2022-12-07T15:54:33;92794.25;;;-7.23
72405;BMP280;60395;52.020;113.548;2022-12-07T15:57:38;92790.59;;;-7.20
72405;BMP280;60395;52.020;113.548;2022-12-07T16:00:41;92796.91;;;-7.21
72405;BMP280;60395;52.020;113.548;2022-12-07T16:03:45;92780.06;;;-7.14
72405;BMP280;60395;52.020;113.548;2022-12-07T16:06:48;92789.72;;;-7.13
72405;BMP280;60395;52.020;113.548;2022-12-07T16:09:53;92788.41;;;-7.14
72405;BMP280;60395;52.020;113.548;2022-12-07T16:12:56;92787.94;;;-7.10
72405;BMP280;60395;52.020;113.548;2022-12-07T16:16:05;92791.28;;;-7.07
72405;BMP280;60395;52.020;113.548;2022-12-07T16:19:09;92777.31;;;-7.06
72405;BMP280;60395;52.020;113.548;2022-12-07T16:22:13;92778.06;;;-7.04
72405;BMP280;60395;52.020;113.548;2022-12-07T16:25:16;92775.84;;;-6.98
72405;BMP280;60395;52.020;113.548;2022-12-07T16:28:19;92775.97;;;-6.96
72405;BMP280;60395;52.020;113.548;2022-12-07T16:31:25;92779.28;;;-6.93
72405;BMP280;60395;52.020;113.548;2022-12-07T16:34:28;92786.84;;;-6.95
72405;BMP280;60395;52.020;113.548;2022-12-07T16:37:32;92780.63;;;-6.92
72405;BMP280;60395;52.020;113.548;2022-12-07T16:40:35;92778.19;;;-6.90
72405;BMP280;60395;52.020;113.548;2022-12-07T16:43:38;92775.63;;;-6.90
72405;BMP280;60395;52.020;113.548;2022-12-07T16:46:42;92782.72;;;-6.89
72405;BMP280;60395;52.020;113.548;2022-12-07T16:49:45;92772.97;;;-6.92
72405;BMP280;60395;52.020;113.548;2022-12-07T16:52:48;92773.53;;;-6.94
72405;BMP280;60395;52.020;113.548;2022-12-07T16:55:51;92775.97;;;-6.96
72405;BMP280;60395;52.020;113.548;2022-12-07T16:58:54;92771.28;;;-6.99
72405;BMP280;60395;52.020;113.548;2022-12-07T17:01:57;92774.63;;;-6.97
72405;BMP280;60395;52.020;113.548;2022-12-07T17:05:01;92765.09;;;-6.96
72405;BMP280;60395;52.020;113.548;2022-12-07T17:08:04;92761.31;;;-6.95
72405;BMP280;60395;52.020;113.548;2022-12-07T17:11:20;92763.31;;;-6.94
72405;BMP280;60395;52.020;113.548;2022-12-07T17:14:24;92766.41;;;-6.95
72405;BMP280;60395;52.020;113.548;2022-12-07T17:17:47;92754.22;;;-6.97
72405;BMP280;60395;52.020;113.548;2022-12-07T17:20:54;92751.66;;;-6.97
72405;BMP280;60395;52.020;113.548;2022-12-07T17:24:07;92748.56;;;-6.95
72405;BMP280;60395;52.020;113.548;2022-12-07T17:27:10;92739.56;;;-6.96
72405;BMP280;60395;52.020;113.548;2022-12-07T17:30:13;92743.56;;;-7.05
72405;BMP280;60395;52.020;113.548;2022-12-07T17:33:17;92740.66;;;-7.11
72405;BMP280;60395;52.020;113.548;2022-12-07T17:36:25;92730.72;;;-7.19
72405;BMP280;60395;52.020;113.548;2022-12-07T17:39:28;92738.56;;;-7.26
72405;BMP280;60395;52.020;113.548;2022-12-07T17:42:32;92735.59;;;-7.34
72405;BMP280;60395;52.020;113.548;2022-12-07T17:45:42;92731.38;;;-7.41
72405;BMP280;60395;52.020;113.548;2022-12-07T17:48:45;92722.03;;;-7.49
72405;BMP280;60395;52.020;113.548;2022-12-07T17:51:48;92719.03;;;-7.57
72405;BMP280;60395;52.020;113.548;2022-12-07T17:55:10;92719.25;;;-7.64
72405;BMP280;60395;52.020;113.548;2022-12-07T17:58:13;92717.81;;;-7.67
72405;BMP280;60395;52.020;113.548;2022-12-07T18:01:16;92716.72;;;-7.64
72405;BMP280;60395;52.020;113.548;2022-12-07T18:04:25;92716.03;;;-7.65
72405;BMP280;60395;52.020;113.548;2022-12-07T18:07:28;92721.66;;;-7.66
72405;BMP280;60395;52.020;113.548;2022-12-07T18:10:31;92729.97;;;-7.66
72405;BMP280;60395;52.020;113.548;2022-12-07T18:13:34;92715.91;;;-7.67
72405;BMP280;60395;52.020;113.548;2022-12-07T18:16:37;92713.25;;;-7.69
72405;BMP280;60395;52.020;113.548;2022-12-07T18:19:40;92727.78;;;-7.71
72405;BMP280;60395;52.020;113.548;2022-12-07T18:22:44;92726.56;;;-7.70
72405;BMP280;60395;52.020;113.548;2022-12-07T18:25:50;92736.00;;;-7.73
72405;BMP280;60395;52.020;113.548;2022-12-07T18:28:53;92732.19;;;-7.72
72405;BMP280;60395;52.020;113.548;2022-12-07T18:31:57;92733.09;;;-7.67